createdAt,value
2018-09-18T00:16:33.509Z,65.93
2018-09-18T00:21:54.665Z,66.52
2018-09-18T00:24:23.061Z,66.18
2018-09-18T00:26:51.375Z,66.08
2018-09-18T00:29:19.674Z,66.38
2018-09-18T00:31:47.970Z,65.62
2018-09-18T00:34:16.303Z,65.35
2018-09-18T00:36:45.546Z,65.88
2018-09-18T00:39:13.843Z,64.91
2018-09-18T00:41:42.156Z,64.96
2018-09-18T00:44:10.495Z,66.01
2018-09-18T00:46:38.756Z,65.79
2018-09-18T00:49:07.047Z,65.46
2018-09-18T00:51:35.358Z,65.74
2018-09-18T00:54:03.602Z,64.99
2018-09-18T00:56:32.491Z,65.29
2018-09-18T00:59:00.739Z,64.72
2018-09-18T01:01:28.964Z,65.00
2018-09-18T01:03:57.198Z,64.83
2018-09-18T01:06:25.480Z,66.01
2018-09-18T01:08:53.724Z,64.67
2018-09-18T01:11:21.987Z,65.07
2018-09-18T01:20:07.474Z,63.64
2018-09-18T01:25:34.769Z,63.49
2018-09-18T02:22:43.654Z,60.89
2018-09-18T03:14:10.042Z,65.23
2018-09-18T03:16:38.339Z,65.42
2018-09-18T03:19:06.653Z,64.84
2018-09-18T04:22:21.702Z,65.61
2018-09-18T04:24:50.063Z,65.40
2018-09-18T04:27:18.372Z,65.17
2018-09-18T04:29:46.657Z,66.10
2018-09-18T04:32:14.942Z,66.42
2018-09-18T04:34:43.253Z,65.98
2018-09-18T04:37:11.549Z,65.88
2018-09-18T04:39:39.826Z,66.54
2018-09-18T04:42:08.122Z,65.91
2018-09-18T04:44:36.440Z,65.32
2018-09-18T04:47:04.713Z,65.27
2018-09-18T04:49:33.014Z,64.26
2018-09-18T04:52:01.292Z,63.92
2018-09-18T04:54:29.534Z,64.57
2018-09-18T04:56:57.806Z,64.04
2018-09-18T04:59:26.119Z,64.39
2018-09-18T05:01:54.364Z,64.97
2018-09-18T05:04:23.038Z,64.82
2018-09-18T05:06:51.287Z,64.52
2018-09-18T05:09:19.575Z,64.98
2018-09-18T05:11:47.801Z,64.57
2018-09-18T06:27:36.484Z,60.40
2018-09-18T06:30:05.024Z,60.26
2018-09-18T06:32:33.478Z,60.19
2018-09-18T06:35:01.817Z,60.12
2018-09-18T06:37:30.202Z,59.20
2018-09-18T06:39:58.499Z,59.78
2018-09-18T06:42:26.851Z,59.33
2018-09-18T06:44:55.159Z,58.52
2018-09-18T06:47:24.071Z,59.31
2018-09-18T06:49:52.364Z,58.62
2018-09-18T06:52:20.671Z,58.97
2018-09-18T06:54:48.997Z,58.84
2018-09-18T06:57:17.234Z,58.25
2018-09-18T06:59:45.506Z,57.91
2018-09-18T07:02:13.769Z,58.15
2018-09-18T07:04:42.003Z,57.56
2018-09-18T07:07:10.370Z,56.95
2018-09-18T07:09:38.711Z,56.75
2018-09-18T07:12:07.116Z,56.87
2018-09-18T07:17:28.143Z,55.93
2018-09-18T07:20:06.536Z,56.07
2018-09-18T07:25:27.763Z,55.22
2018-09-18T07:27:56.040Z,54.56
2018-09-18T07:30:24.287Z,54.89
2018-09-18T07:32:52.554Z,55.19
2018-09-18T07:35:20.812Z,54.58
2018-09-18T07:37:49.084Z,54.40
2018-09-18T07:40:17.364Z,53.94
2018-09-18T07:42:45.628Z,53.49
2018-09-18T07:48:06.390Z,53.09
2018-09-18T07:50:34.601Z,52.91
2018-09-18T07:53:02.888Z,51.78
2018-09-18T07:55:31.141Z,52.08
2018-09-18T07:57:59.443Z,51.12
2018-09-18T08:00:27.694Z,50.13
2018-09-18T08:02:55.944Z,49.58
2018-09-18T08:05:24.191Z,47.85
2018-09-18T08:07:52.392Z,47.79
2018-09-18T08:10:20.626Z,47.55
2018-09-18T08:21:38.940Z,47.19
2018-09-18T08:24:20.561Z,47.43
2018-09-18T09:12:42.869Z,36.48
2018-09-18T09:15:11.203Z,37.09
2018-09-18T09:17:39.513Z,35.51
2018-09-18T09:25:52.648Z,35.65
2018-09-18T09:28:20.924Z,36.46
2018-09-18T09:30:49.340Z,35.32
2018-09-18T09:33:17.655Z,34.91
2018-09-18T09:35:46.009Z,35.89
2018-09-18T09:38:14.300Z,36.09
2018-09-18T09:40:42.621Z,34.46
2018-09-18T09:43:10.965Z,34.44
2018-09-18T09:45:39.246Z,33.93
2018-09-18T09:48:07.574Z,34.12
2018-09-18T09:50:35.800Z,34.39
2018-09-18T09:53:04.074Z,34.38
2018-09-18T09:55:32.418Z,34.14
2018-09-18T09:58:00.690Z,33.25
2018-09-18T10:00:34.338Z,34.03
2018-09-18T10:03:02.676Z,33.88
2018-09-18T10:05:30.886Z,31.90
2018-09-18T10:07:59.129Z,31.36
2018-09-18T10:10:27.382Z,33.29
2018-09-18T10:24:49.103Z,32.18
2018-09-18T12:33:54.168Z,24.65
2018-09-18T12:36:22.478Z,24.90
2018-09-18T12:38:50.761Z,24.18
2018-09-18T12:41:19.095Z,25.00
2018-09-18T12:43:47.458Z,25.11
2018-09-18T12:46:15.745Z,24.73
2018-09-18T12:48:44.012Z,25.58
2018-09-18T12:51:12.297Z,24.68
2018-09-18T12:53:40.626Z,24.42
2018-09-18T12:56:08.964Z,24.35
2018-09-18T12:58:37.174Z,24.69
2018-09-18T13:01:05.550Z,24.76
2018-09-18T13:03:33.789Z,24.10
2018-09-18T13:06:02.043Z,24.27
2018-09-18T13:08:30.263Z,23.46
2018-09-18T13:10:58.513Z,23.59
2018-09-18T13:19:23.314Z,21.65
2018-09-18T14:16:06.921Z,21.64
2018-09-18T14:24:30.662Z,21.42
2018-09-18T15:15:46.559Z,21.97
2018-09-18T16:21:28.591Z,25.19
2018-09-18T16:23:56.892Z,25.20
2018-09-18T17:23:57.092Z,31.45
2018-09-18T17:29:18.110Z,31.21
2018-09-18T17:31:47.039Z,31.73
2018-09-18T17:34:15.357Z,31.65
2018-09-18T17:36:43.630Z,32.42
2018-09-18T17:39:12.467Z,32.01
2018-09-18T17:41:40.928Z,32.68
2018-09-18T17:44:09.773Z,32.46
2018-09-18T17:46:38.080Z,32.52
2018-09-18T17:49:06.507Z,32.94
2018-09-18T17:51:34.805Z,32.38
2018-09-18T17:54:03.100Z,32.57
2018-09-18T17:56:31.454Z,33.19
2018-09-18T17:58:59.731Z,33.15
2018-09-18T18:01:28.110Z,33.15
2018-09-18T18:03:56.390Z,32.69
2018-09-18T18:06:24.643Z,32.70
2018-09-18T18:08:52.881Z,32.85
2018-09-18T18:11:21.148Z,33.66
2018-09-18T18:38:08.723Z,34.02
2018-09-18T18:40:37.018Z,34.54
2018-09-18T18:43:05.322Z,34.31
2018-09-18T18:45:33.617Z,34.92
2018-09-18T18:48:02.155Z,34.81
2018-09-18T18:50:31.438Z,34.68
2018-09-18T18:52:59.734Z,34.96
2018-09-18T18:55:28.101Z,35.09
2018-09-18T18:57:56.434Z,34.45
2018-09-18T19:00:24.722Z,35.41
2018-09-18T19:02:53.066Z,35.14
2018-09-18T19:05:21.365Z,35.42
2018-09-18T19:07:49.647Z,35.02
2018-09-18T19:10:17.874Z,35.21
2018-09-18T19:12:46.101Z,35.43
2018-09-18T19:15:14.358Z,35.07
2018-09-18T19:17:42.606Z,35.29
2018-09-18T19:20:10.977Z,35.78
2018-09-18T19:25:32.697Z,36.54
2018-09-18T19:28:00.952Z,35.54
2018-09-18T19:30:29.210Z,36.40
2018-09-18T19:32:57.527Z,36.87
2018-09-18T19:35:25.754Z,36.91
2018-09-18T19:37:54.001Z,37.27
2018-09-18T19:40:22.241Z,37.00
2018-09-18T19:42:50.511Z,36.80
2018-09-18T19:45:18.802Z,38.67
2018-09-18T19:47:47.033Z,38.22
2018-09-18T19:50:15.447Z,41.35
2018-09-18T19:52:46.173Z,46.38
2018-09-18T19:55:14.978Z,49.09
2018-09-18T19:57:43.229Z,52.85
2018-09-18T20:00:12.149Z,53.38
2018-09-18T20:02:40.816Z,54.28
2018-09-18T20:05:09.062Z,58.98
2018-09-18T20:07:37.327Z,59.51
2018-09-18T20:10:05.765Z,60.01
2018-09-18T20:12:34.019Z,60.36
2018-09-18T20:15:02.329Z,62.65
2018-09-18T20:17:30.556Z,62.99
2018-09-18T20:28:33.266Z,64.00
2018-09-18T20:31:01.531Z,63.13
2018-09-18T20:33:29.798Z,65.04
2018-09-18T20:35:58.196Z,63.86
2018-09-18T20:38:26.484Z,65.45
2018-09-18T20:40:54.746Z,66.23
2018-09-18T20:43:23.025Z,64.68
2018-09-18T20:45:51.305Z,64.95
2018-09-18T20:48:19.636Z,65.62
2018-09-18T20:50:47.956Z,65.74
2018-09-18T20:53:16.198Z,66.64
2018-09-18T20:55:44.619Z,66.66
2018-09-18T20:58:12.882Z,67.96
2018-09-18T21:00:41.165Z,68.92
2018-09-18T21:03:09.500Z,68.12
2018-09-18T21:05:37.766Z,67.87
2018-09-18T21:08:06.027Z,67.74
2018-09-18T21:10:34.297Z,67.54
2018-09-18T21:21:51.434Z,67.82
2018-09-18T21:30:28.628Z,68.50
2018-09-18T21:32:56.985Z,69.51
2018-09-18T21:35:25.253Z,69.93
2018-09-18T21:37:53.571Z,70.29
2018-09-18T21:40:21.879Z,71.36
2018-09-18T21:42:50.154Z,67.53
2018-09-18T21:45:18.413Z,71.12
2018-09-18T21:47:46.684Z,70.98
2018-09-18T21:50:15.014Z,70.18
2018-09-18T21:52:43.345Z,70.57
2018-09-18T21:55:11.629Z,70.33
2018-09-18T21:57:39.881Z,71.77
2018-09-18T22:00:08.178Z,73.03
2018-09-18T22:02:36.422Z,72.84
2018-09-18T22:05:04.694Z,70.85
2018-09-18T22:07:32.946Z,71.88
2018-09-18T22:10:01.195Z,71.37
2018-09-18T22:12:29.522Z,71.26
2018-09-18T22:17:50.695Z,71.67
2018-09-18T22:23:11.461Z,73.38
2018-09-18T22:25:39.709Z,73.25
2018-09-18T23:23:27.702Z,77.08
2018-09-18T23:25:59.021Z,77.14
2018-09-18T23:28:27.335Z,74.35
2018-09-18T23:30:56.643Z,77.29
2018-09-18T23:33:24.945Z,76.02
2018-09-18T23:35:53.297Z,75.57
2018-09-18T23:38:21.622Z,75.79
2018-09-18T23:40:49.915Z,75.12
2018-09-18T23:43:18.249Z,75.09
2018-09-18T23:45:46.521Z,74.87
2018-09-18T23:48:14.786Z,75.69
2018-09-18T23:50:43.062Z,75.55
2018-09-18T23:53:11.315Z,75.17
2018-09-18T23:55:45.842Z,75.22
2018-09-18T23:58:14.136Z,75.21
